sensor_id;sensor_type;location;lat;lon;timestamp;temperature;humidity
4103;DHT22;2065;49.790;9.620;2023-04-15T00:01:21;12.40;53.40
4103;DHT22;2065;49.790;9.620;2023-04-15T00:03:51;12.40;53.20
4103;DHT22;2065;49.790;9.620;2023-04-15T00:06:19;12.50;53.30
4103;DHT22;2065;49.790;9.620;2023-04-15T00:08:46;12.40;53.10
4103;DHT22;2065;49.790;9.620;2023-04-15T00:11:13;12.40;53.20
4103;DHT22;2065;49.790;9.620;2023-04-15T00:13:41;12.30;53.60
4103;DHT22;2065;49.790;9.620;2023-04-15T00:16:09;12.20;53.60
4103;DHT22;2065;49.790;9.620;2023-04-15T00:18:36;12.20;53.60
4103;DHT22;2065;49.790;9.620;2023-04-15T00:21:05;12.20;53.40
4103;DHT22;2065;49.790;9.620;2023-04-15T00:23:32;12.30;53.40
4103;DHT22;2065;49.790;9.620;2023-04-15T00:25:59;12.20;53.10
4103;DHT22;2065;49.790;9.620;2023-04-15T00:28:26;12.20;53.00
4103;DHT22;2065;49.790;9.620;2023-04-15T00:30:53;12.20;53.10
4103;DHT22;2065;49.790;9.620;2023-04-15T00:33:21;12.20;53.00
4103;DHT22;2065;49.790;9.620;2023-04-15T00:35:48;12.10;53.10
4103;DHT22;2065;49.790;9.620;2023-04-15T00:38:18;12.10;53.70
4103;DHT22;2065;49.790;9.620;2023-04-15T00:40:45;12.00;53.20
4103;DHT22;2065;49.790;9.620;2023-04-15T00:43:12;11.40;54.40
4103;DHT22;2065;49.790;9.620;2023-04-15T00:45:39;11.30;54.30
4103;DHT22;2065;49.790;9.620;2023-04-15T00:48:07;11.20;54.60
4103;DHT22;2065;49.790;9.620;2023-04-15T00:50:34;11.20;54.20
4103;DHT22;2065;49.790;9.620;2023-04-15T00:53:01;11.10;55.10
4103;DHT22;2065;49.790;9.620;2023-04-15T00:55:29;11.30;55.20
4103;DHT22;2065;49.790;9.620;2023-04-15T00:57:57;11.40;54.70
4103;DHT22;2065;49.790;9.620;2023-04-15T01:00:24;11.10;55.00
4103;DHT22;2065;49.790;9.620;2023-04-15T01:02:51;11.10;54.30
4103;DHT22;2065;49.790;9.620;2023-04-15T01:05:18;11.20;54.30
4103;DHT22;2065;49.790;9.620;2023-04-15T01:07:46;11.30;55.00
4103;DHT22;2065;49.790;9.620;2023-04-15T01:10:13;11.40;54.60
4103;DHT22;2065;49.790;9.620;2023-04-15T01:12:43;11.50;54.70
4103;DHT22;2065;49.790;9.620;2023-04-15T01:15:10;11.60;54.80
4103;DHT22;2065;49.790;9.620;2023-04-15T01:17:38;11.60;55.00
4103;DHT22;2065;49.790;9.620;2023-04-15T01:20:07;11.60;55.50
4103;DHT22;2065;49.790;9.620;2023-04-15T01:22:37;11.70;54.50
4103;DHT22;2065;49.790;9.620;2023-04-15T01:25:11;11.60;54.60
4103;DHT22;2065;49.790;9.620;2023-04-15T01:27:40;11.50;54.80
4103;DHT22;2065;49.790;9.620;2023-04-15T01:30:09;11.50;54.90
4103;DHT22;2065;49.790;9.620;2023-04-15T01:32:37;11.70;54.60
4103;DHT22;2065;49.790;9.620;2023-04-15T01:35:22;11.80;54.50
4103;DHT22;2065;49.790;9.620;2023-04-15T01:37:50;11.80;54.60
4103;DHT22;2065;49.790;9.620;2023-04-15T01:40:17;11.80;54.60
4103;DHT22;2065;49.790;9.620;2023-04-15T01:42:46;11.90;54.80
4103;DHT22;2065;49.790;9.620;2023-04-15T01:45:14;11.80;54.40
4103;DHT22;2065;49.790;9.620;2023-04-15T01:47:42;11.80;54.60
4103;DHT22;2065;49.790;9.620;2023-04-15T01:50:09;11.80;54.70
4103;DHT22;2065;49.790;9.620;2023-04-15T01:52:36;11.80;54.60
4103;DHT22;2065;49.790;9.620;2023-04-15T01:55:04;11.80;54.90
4103;DHT22;2065;49.790;9.620;2023-04-15T01:57:32;11.70;54.80
4103;DHT22;2065;49.790;9.620;2023-04-15T02:00:01;11.70;55.10
4103;DHT22;2065;49.790;9.620;2023-04-15T02:02:39;11.60;55.20
4103;DHT22;2065;49.790;9.620;2023-04-15T02:05:06;11.60;55.50
4103;DHT22;2065;49.790;9.620;2023-04-15T02:07:36;11.50;55.70
4103;DHT22;2065;49.790;9.620;2023-04-15T02:10:04;11.50;55.60
4103;DHT22;2065;49.790;9.620;2023-04-15T02:12:31;11.40;55.80
4103;DHT22;2065;49.790;9.620;2023-04-15T02:14:58;11.50;55.80
4103;DHT22;2065;49.790;9.620;2023-04-15T02:17:26;11.50;55.80
4103;DHT22;2065;49.790;9.620;2023-04-15T02:19:55;11.60;55.80
4103;DHT22;2065;49.790;9.620;2023-04-15T02:22:23;11.60;55.50
4103;DHT22;2065;49.790;9.620;2023-04-15T02:24:50;11.70;55.30
4103;DHT22;2065;49.790;9.620;2023-04-15T02:27:18;11.70;54.90
4103;DHT22;2065;49.790;9.620;2023-04-15T02:29:45;11.70;54.80
4103;DHT22;2065;49.790;9.620;2023-04-15T02:32:12;11.70;55.00
4103;DHT22;2065;49.790;9.620;2023-04-15T02:34:41;11.70;55.10
4103;DHT22;2065;49.790;9.620;2023-04-15T02:37:10;11.80;54.90
4103;DHT22;2065;49.790;9.620;2023-04-15T02:39:37;11.60;55.10
4103;DHT22;2065;49.790;9.620;2023-04-15T02:42:05;11.60;55.10
4103;DHT22;2065;49.790;9.620;2023-04-15T02:44:32;11.60;55.00
4103;DHT22;2065;49.790;9.620;2023-04-15T02:47:02;11.60;54.90
4103;DHT22;2065;49.790;9.620;2023-04-15T02:49:31;11.60;55.10
4103;DHT22;2065;49.790;9.620;2023-04-15T02:52:01;11.60;55.00
4103;DHT22;2065;49.790;9.620;2023-04-15T02:54:28;11.60;55.00
4103;DHT22;2065;49.790;9.620;2023-04-15T02:56:55;11.60;54.90
4103;DHT22;2065;49.790;9.620;2023-04-15T02:59:23;11.70;54.70
4103;DHT22;2065;49.790;9.620;2023-04-15T03:01:50;11.70;54.70
4103;DHT22;2065;49.790;9.620;2023-04-15T03:04:17;11.70;54.60
4103;DHT22;2065;49.790;9.620;2023-04-15T03:06:44;11.70;54.80
4103;DHT22;2065;49.790;9.620;2023-04-15T03:09:12;11.60;55.00
4103;DHT22;2065;49.790;9.620;2023-04-15T03:11:39;11.70;54.90
4103;DHT22;2065;49.790;9.620;2023-04-15T03:14:08;11.60;54.80
4103;DHT22;2065;49.790;9.620;2023-04-15T03:16:40;11.60;54.70
4103;DHT22;2065;49.790;9.620;2023-04-15T03:19:07;11.60;54.60
4103;DHT22;2065;49.790;9.620;2023-04-15T03:21:34;11.60;54.50
4103;DHT22;2065;49.790;9.620;2023-04-15T03:24:01;11.60;54.40
4103;DHT22;2065;49.790;9.620;2023-04-15T03:26:30;11.60;54.70
4103;DHT22;2065;49.790;9.620;2023-04-15T03:29:01;11.50;54.60
4103;DHT22;2065;49.790;9.620;2023-04-15T03:31:28;11.60;54.50
4103;DHT22;2065;49.790;9.620;2023-04-15T03:33:55;11.60;54.30
4103;DHT22;2065;49.790;9.620;2023-04-15T03:36:22;11.60;54.20
4103;DHT22;2065;49.790;9.620;2023-04-15T03:38:49;11.50;54.10
4103;DHT22;2065;49.790;9.620;2023-04-15T03:41:17;11.50;54.30
4103;DHT22;2065;49.790;9.620;2023-04-15T03:43:45;11.40;54.20
4103;DHT22;2065;49.790;9.620;2023-04-15T03:46:13;11.20;54.90
4103;DHT22;2065;49.790;9.620;2023-04-15T03:48:40;11.20;54.70
4103;DHT22;2065;49.790;9.620;2023-04-15T03:51:07;11.20;54.80
4103;DHT22;2065;49.790;9.620;2023-04-15T03:53:34;11.30;55.00
4103;DHT22;2065;49.790;9.620;2023-04-15T03:56:01;11.30;54.80
4103;DHT22;2065;49.790;9.620;2023-04-15T03:58:28;11.30;54.70
4103;DHT22;2065;49.790;9.620;2023-04-15T04:00:57;11.30;54.50
4103;DHT22;2065;49.790;9.620;2023-04-15T04:03:24;11.40;54.50
4103;DHT22;2065;49.790;9.620;2023-04-15T04:05:51;11.40;54.50
4103;DHT22;2065;49.790;9.620;2023-04-15T04:08:18;11.40;54.50
4103;DHT22;2065;49.790;9.620;2023-04-15T04:10:46;11.40;54.60
4103;DHT22;2065;49.790;9.620;2023-04-15T04:13:13;11.40;54.50
4103;DHT22;2065;49.790;9.620;2023-04-15T04:15:41;11.40;54.30
4103;DHT22;2065;49.790;9.620;2023-04-15T04:18:09;11.40;54.60
4103;DHT22;2065;49.790;9.620;2023-04-15T04:20:36;11.10;54.90
4103;DHT22;2065;49.790;9.620;2023-04-15T04:23:03;11.20;55.00
4103;DHT22;2065;49.790;9.620;2023-04-15T04:25:30;11.30;55.10
4103;DHT22;2065;49.790;9.620;2023-04-15T04:27:57;11.20;55.20
4103;DHT22;2065;49.790;9.620;2023-04-15T04:30:25;11.20;55.30
4103;DHT22;2065;49.790;9.620;2023-04-15T04:32:52;11.20;55.20
4103;DHT22;2065;49.790;9.620;2023-04-15T04:35:20;11.10;55.70
4103;DHT22;2065;49.790;9.620;2023-04-15T04:37:47;11.00;55.90
4103;DHT22;2065;49.790;9.620;2023-04-15T04:40:15;11.00;55.90
4103;DHT22;2065;49.790;9.620;2023-04-15T04:42:42;11.10;55.70
4103;DHT22;2065;49.790;9.620;2023-04-15T04:45:10;11.20;55.60
4103;DHT22;2065;49.790;9.620;2023-04-15T04:47:37;11.20;55.30
4103;DHT22;2065;49.790;9.620;2023-04-15T04:50:05;11.20;54.90
4103;DHT22;2065;49.790;9.620;2023-04-15T04:52:34;11.10;55.10
4103;DHT22;2065;49.790;9.620;2023-04-15T04:55:01;11.00;55.70
4103;DHT22;2065;49.790;9.620;2023-04-15T04:57:28;11.10;55.70
4103;DHT22;2065;49.790;9.620;2023-04-15T04:59:55;11.10;55.50
4103;DHT22;2065;49.790;9.620;2023-04-15T05:02:22;11.10;55.60
4103;DHT22;2065;49.790;9.620;2023-04-15T05:04:51;11.10;55.30
4103;DHT22;2065;49.790;9.620;2023-04-15T05:07:20;11.00;55.70
4103;DHT22;2065;49.790;9.620;2023-04-15T05:09:48;11.10;55.90
4103;DHT22;2065;49.790;9.620;2023-04-15T05:12:15;11.10;55.80
4103;DHT22;2065;49.790;9.620;2023-04-15T05:14:43;11.20;55.60
4103;DHT22;2065;49.790;9.620;2023-04-15T05:17:11;11.30;55.60
4103;DHT22;2065;49.790;9.620;2023-04-15T05:19:38;11.30;55.60
4103;DHT22;2065;49.790;9.620;2023-04-15T05:22:06;11.40;55.80
4103;DHT22;2065;49.790;9.620;2023-04-15T05:24:33;11.40;55.50
4103;DHT22;2065;49.790;9.620;2023-04-15T05:27:01;11.40;55.70
4103;DHT22;2065;49.790;9.620;2023-04-15T05:29:28;11.40;55.70
4103;DHT22;2065;49.790;9.620;2023-04-15T05:31:55;11.40;55.40
4103;DHT22;2065;49.790;9.620;2023-04-15T05:34:22;11.40;55.70
4103;DHT22;2065;49.790;9.620;2023-04-15T05:36:49;11.50;55.90
4103;DHT22;2065;49.790;9.620;2023-04-15T05:39:17;11.50;56.00
4103;DHT22;2065;49.790;9.620;2023-04-15T05:41:44;11.50;56.30
4103;DHT22;2065;49.790;9.620;2023-04-15T05:44:12;11.40;56.10
4103;DHT22;2065;49.790;9.620;2023-04-15T05:46:39;11.50;56.40
4103;DHT22;2065;49.790;9.620;2023-04-15T05:49:07;11.50;56.10
4103;DHT22;2065;49.790;9.620;2023-04-15T05:51:34;11.60;55.80
4103;DHT22;2065;49.790;9.620;2023-04-15T05:54:01;11.60;55.80
4103;DHT22;2065;49.790;9.620;2023-04-15T05:56:28;11.70;55.90
4103;DHT22;2065;49.790;9.620;2023-04-15T05:58:55;11.60;56.10
4103;DHT22;2065;49.790;9.620;2023-04-15T06:01:23;11.50;56.60
4103;DHT22;2065;49.790;9.620;2023-04-15T06:03:50;11.70;56.60
4103;DHT22;2065;49.790;9.620;2023-04-15T06:06:17;11.70;56.30
4103;DHT22;2065;49.790;9.620;2023-04-15T06:08:45;11.70;56.30
4103;DHT22;2065;49.790;9.620;2023-04-15T06:11:12;11.80;56.30
4103;DHT22;2065;49.790;9.620;2023-04-15T06:13:39;11.80;56.50
4103;DHT22;2065;49.790;9.620;2023-04-15T06:16:06;11.80;55.90
4103;DHT22;2065;49.790;9.620;2023-04-15T06:18:34;11.60;56.10
4103;DHT22;2065;49.790;9.620;2023-04-15T06:21:01;11.30;57.20
4103;DHT22;2065;49.790;9.620;2023-04-15T06:23:28;11.30;57.50
4103;DHT22;2065;49.790;9.620;2023-04-15T06:25:55;11.40;57.30
4103;DHT22;2065;49.790;9.620;2023-04-15T06:28:22;11.60;57.00
4103;DHT22;2065;49.790;9.620;2023-04-15T06:30:49;11.70;56.70
4103;DHT22;2065;49.790;9.620;2023-04-15T06:33:16;11.80;56.60
4103;DHT22;2065;49.790;9.620;2023-04-15T06:35:45;11.50;56.80
4103;DHT22;2065;49.790;9.620;2023-04-15T06:38:14;11.70;57.40
4103;DHT22;2065;49.790;9.620;2023-04-15T06:40:41;11.60;57.20
4103;DHT22;2065;49.790;9.620;2023-04-15T06:43:08;11.40;57.80
4103;DHT22;2065;49.790;9.620;2023-04-15T06:45:35;11.40;57.90
4103;DHT22;2065;49.790;9.620;2023-04-15T06:48:03;11.40;58.20
4103;DHT22;2065;49.790;9.620;2023-04-15T06:50:30;11.50;57.80
4103;DHT22;2065;49.790;9.620;2023-04-15T06:52:59;11.50;58.00
4103;DHT22;2065;49.790;9.620;2023-04-15T06:55:26;11.20;58.20
4103;DHT22;2065;49.790;9.620;2023-04-15T06:57:53;11.40;58.50
4103;DHT22;2065;49.790;9.620;2023-04-15T07:00:20;11.50;58.40
4103;DHT22;2065;49.790;9.620;2023-04-15T07:02:47;11.70;58.00
4103;DHT22;2065;49.790;9.620;2023-04-15T07:05:14;12.00;57.50
4103;DHT22;2065;49.790;9.620;2023-04-15T07:07:41;12.20;57.40
4103;DHT22;2065;49.790;9.620;2023-04-15T07:10:10;12.20;57.00
4103;DHT22;2065;49.790;9.620;2023-04-15T07:12:37;12.10;57.20
4103;DHT22;2065;49.790;9.620;2023-04-15T07:15:06;12.00;57.40
4103;DHT22;2065;49.790;9.620;2023-04-15T07:17:33;11.70;57.50
4103;DHT22;2065;49.790;9.620;2023-04-15T07:20:01;11.70;58.20
4103;DHT22;2065;49.790;9.620;2023-04-15T07:22:29;11.70;58.20
4103;DHT22;2065;49.790;9.620;2023-04-15T07:24:56;11.70;58.30
4103;DHT22;2065;49.790;9.620;2023-04-15T07:27:25;12.00;58.30
4103;DHT22;2065;49.790;9.620;2023-04-15T07:29:52;12.20;57.60
4103;DHT22;2065;49.790;9.620;2023-04-15T07:32:19;12.30;57.30
4103;DHT22;2065;49.790;9.620;2023-04-15T07:34:46;12.50;57.70
4103;DHT22;2065;49.790;9.620;2023-04-15T07:37:14;12.60;56.90
4103;DHT22;2065;49.790;9.620;2023-04-15T07:39:41;12.50;56.80
4103;DHT22;2065;49.790;9.620;2023-04-15T07:42:08;12.50;57.00
4103;DHT22;2065;49.790;9.620;2023-04-15T07:44:37;12.30;57.10
4103;DHT22;2065;49.790;9.620;2023-04-15T07:47:04;12.30;57.20
4103;DHT22;2065;49.790;9.620;2023-04-15T07:49:31;12.40;57.40
4103;DHT22;2065;49.790;9.620;2023-04-15T07:51:58;12.60;57.10
4103;DHT22;2065;49.790;9.620;2023-04-15T07:54:25;12.70;56.70
4103;DHT22;2065;49.790;9.620;2023-04-15T07:56:53;12.80;56.60
4103;DHT22;2065;49.790;9.620;2023-04-15T07:59:20;12.90;56.10
4103;DHT22;2065;49.790;9.620;2023-04-15T08:01:49;13.00;56.00
4103;DHT22;2065;49.790;9.620;2023-04-15T08:04:16;13.20;56.10
4103;DHT22;2065;49.790;9.620;2023-04-15T08:06:43;13.40;55.40
4103;DHT22;2065;49.790;9.620;2023-04-15T08:09:10;13.50;55.20
4103;DHT22;2065;49.790;9.620;2023-04-15T08:11:37;13.40;55.20
4103;DHT22;2065;49.790;9.620;2023-04-15T08:14:04;13.40;55.20
4103;DHT22;2065;49.790;9.620;2023-04-15T08:16:31;13.50;55.70
4103;DHT22;2065;49.790;9.620;2023-04-15T08:19:00;13.50;55.80
4103;DHT22;2065;49.790;9.620;2023-04-15T08:21:28;13.60;55.50
4103;DHT22;2065;49.790;9.620;2023-04-15T08:23:55;13.80;55.50
4103;DHT22;2065;49.790;9.620;2023-04-15T08:26:22;13.90;55.20
4103;DHT22;2065;49.790;9.620;2023-04-15T08:28:50;14.20;54.60
4103;DHT22;2065;49.790;9.620;2023-04-15T08:31:17;14.20;54.40
4103;DHT22;2065;49.790;9.620;2023-04-15T08:33:45;14.30;54.70
4103;DHT22;2065;49.790;9.620;2023-04-15T08:36:13;14.60;53.80
4103;DHT22;2065;49.790;9.620;2023-04-15T08:38:40;14.80;52.70
4103;DHT22;2065;49.790;9.620;2023-04-15T08:41:16;14.90;52.50
4103;DHT22;2065;49.790;9.620;2023-04-15T08:43:51;14.80;52.00
4103;DHT22;2065;49.790;9.620;2023-04-15T08:46:18;14.90;52.10
4103;DHT22;2065;49.790;9.620;2023-04-15T08:48:47;15.10;51.60
4103;DHT22;2065;49.790;9.620;2023-04-15T08:51:16;15.00;50.60
4103;DHT22;2065;49.790;9.620;2023-04-15T08:53:43;15.10;50.40
4103;DHT22;2065;49.790;9.620;2023-04-15T08:56:13;15.00;49.50
4103;DHT22;2065;49.790;9.620;2023-04-15T08:58:42;14.60;50.50
4103;DHT22;2065;49.790;9.620;2023-04-15T09:01:10;14.50;49.90
4103;DHT22;2065;49.790;9.620;2023-04-15T09:03:38;14.10;49.50
4103;DHT22;2065;49.790;9.620;2023-04-15T09:06:05;14.30;50.40
4103;DHT22;2065;49.790;9.620;2023-04-15T09:08:34;14.60;50.40
4103;DHT22;2065;49.790;9.620;2023-04-15T09:11:01;14.90;50.10
4103;DHT22;2065;49.790;9.620;2023-04-15T09:13:28;14.90;48.40
4103;DHT22;2065;49.790;9.620;2023-04-15T09:15:56;14.80;46.70
4103;DHT22;2065;49.790;9.620;2023-04-15T09:18:27;14.70;45.40
4103;DHT22;2065;49.790;9.620;2023-04-15T09:20:55;14.70;45.80
4103;DHT22;2065;49.790;9.620;2023-04-15T09:23:22;14.90;46.80
4103;DHT22;2065;49.790;9.620;2023-04-15T09:25:51;14.90;45.20
4103;DHT22;2065;49.790;9.620;2023-04-15T09:28:23;14.80;45.60
4103;DHT22;2065;49.790;9.620;2023-04-15T09:30:54;14.90;45.40
4103;DHT22;2065;49.790;9.620;2023-04-15T09:33:22;14.80;44.70
4103;DHT22;2065;49.790;9.620;2023-04-15T09:35:58;14.60;45.20
4103;DHT22;2065;49.790;9.620;2023-04-15T09:38:26;14.70;45.30
4103;DHT22;2065;49.790;9.620;2023-04-15T09:40:54;14.80;45.40
4103;DHT22;2065;49.790;9.620;2023-04-15T09:43:21;15.00;45.70
4103;DHT22;2065;49.790;9.620;2023-04-15T09:45:51;15.20;44.50
4103;DHT22;2065;49.790;9.620;2023-04-15T09:48:20;15.10;44.70
4103;DHT22;2065;49.790;9.620;2023-04-15T09:50:48;15.10;44.30
4103;DHT22;2065;49.790;9.620;2023-04-15T09:53:16;14.90;44.90
4103;DHT22;2065;49.790;9.620;2023-04-15T09:55:45;14.90;45.70
4103;DHT22;2065;49.790;9.620;2023-04-15T09:58:20;15.00;44.90
4103;DHT22;2065;49.790;9.620;2023-04-15T10:00:49;15.10;45.00
4103;DHT22;2065;49.790;9.620;2023-04-15T10:03:19;15.30;45.50
4103;DHT22;2065;49.790;9.620;2023-04-15T10:05:50;15.40;44.90
4103;DHT22;2065;49.790;9.620;2023-04-15T10:08:19;15.40;45.50
4103;DHT22;2065;49.790;9.620;2023-04-15T10:10:47;15.50;45.40
4103;DHT22;2065;49.790;9.620;2023-04-15T10:13:16;15.40;46.30
4103;DHT22;2065;49.790;9.620;2023-04-15T10:15:55;15.40;46.60
4103;DHT22;2065;49.790;9.620;2023-04-15T10:18:24;15.50;46.10
4103;DHT22;2065;49.790;9.620;2023-04-15T10:20:52;15.50;46.50
4103;DHT22;2065;49.790;9.620;2023-04-15T10:23:19;15.60;47.20
4103;DHT22;2065;49.790;9.620;2023-04-15T10:25:48;15.80;47.00
4103;DHT22;2065;49.790;9.620;2023-04-15T10:28:15;15.80;46.40
4103;DHT22;2065;49.790;9.620;2023-04-15T10:30:42;15.80;44.60
4103;DHT22;2065;49.790;9.620;2023-04-15T10:33:11;15.40;41.50
4103;DHT22;2065;49.790;9.620;2023-04-15T10:35:39;15.10;43.10
4103;DHT22;2065;49.790;9.620;2023-04-15T10:38:31;15.20;43.40
4103;DHT22;2065;49.790;9.620;2023-04-15T10:41:12;15.10;44.00
4103;DHT22;2065;49.790;9.620;2023-04-15T10:43:44;14.80;44.60
4103;DHT22;2065;49.790;9.620;2023-04-15T10:46:11;14.90;45.00
4103;DHT22;2065;49.790;9.620;2023-04-15T10:48:51;14.80;44.80
4103;DHT22;2065;49.790;9.620;2023-04-15T10:51:27;14.60;45.20
4103;DHT22;2065;49.790;9.620;2023-04-15T10:53:58;14.40;45.50
4103;DHT22;2065;49.790;9.620;2023-04-15T10:56:27;14.20;45.70
4103;DHT22;2065;49.790;9.620;2023-04-15T10:58:54;14.20;47.20
4103;DHT22;2065;49.790;9.620;2023-04-15T11:01:21;14.20;46.00
4103;DHT22;2065;49.790;9.620;2023-04-15T11:03:50;14.30;46.50
4103;DHT22;2065;49.790;9.620;2023-04-15T11:06:17;14.20;46.20
4103;DHT22;2065;49.790;9.620;2023-04-15T11:08:55;14.20;46.20
4103;DHT22;2065;49.790;9.620;2023-04-15T11:12:04;14.20;46.20
4103;DHT22;2065;49.790;9.620;2023-04-15T11:14:32;14.30;46.90
4103;DHT22;2065;49.790;9.620;2023-04-15T11:17:00;14.30;46.50
4103;DHT22;2065;49.790;9.620;2023-04-15T11:19:36;14.60;47.70
4103;DHT22;2065;49.790;9.620;2023-04-15T11:22:07;15.00;46.40
4103;DHT22;2065;49.790;9.620;2023-04-15T11:24:35;15.00;46.20
4103;DHT22;2065;49.790;9.620;2023-04-15T11:27:02;14.80;45.70
4103;DHT22;2065;49.790;9.620;2023-04-15T11:29:29;14.50;46.30
4103;DHT22;2065;49.790;9.620;2023-04-15T11:32:08;14.40;46.50
4103;DHT22;2065;49.790;9.620;2023-04-15T11:34:36;14.40;46.70
4103;DHT22;2065;49.790;9.620;2023-04-15T11:37:04;14.30;48.00
4103;DHT22;2065;49.790;9.620;2023-04-15T11:39:32;14.40;49.80
4103;DHT22;2065;49.790;9.620;2023-04-15T11:41:59;14.30;50.10
4103;DHT22;2065;49.790;9.620;2023-04-15T11:44:26;14.20;51.90
4103;DHT22;2065;49.790;9.620;2023-04-15T11:46:54;14.10;52.80
4103;DHT22;2065;49.790;9.620;2023-04-15T11:49:28;14.10;54.00
4103;DHT22;2065;49.790;9.620;2023-04-15T11:51:56;13.90;53.80
4103;DHT22;2065;49.790;9.620;2023-04-15T11:54:24;13.90;53.40
4103;DHT22;2065;49.790;9.620;2023-04-15T11:56:51;14.00;54.90
4103;DHT22;2065;49.790;9.620;2023-04-15T11:59:19;14.00;56.10
4103;DHT22;2065;49.790;9.620;2023-04-15T12:01:46;13.80;54.20
4103;DHT22;2065;49.790;9.620;2023-04-15T12:04:14;13.70;54.90
4103;DHT22;2065;49.790;9.620;2023-04-15T12:06:42;13.60;55.60
4103;DHT22;2065;49.790;9.620;2023-04-15T12:09:12;13.70;56.40
4103;DHT22;2065;49.790;9.620;2023-04-15T12:11:41;13.70;56.60
4103;DHT22;2065;49.790;9.620;2023-04-15T12:14:11;13.60;55.90
4103;DHT22;2065;49.790;9.620;2023-04-15T12:16:40;13.80;56.90
4103;DHT22;2065;49.790;9.620;2023-04-15T12:19:09;13.80;55.70
4103;DHT22;2065;49.790;9.620;2023-04-15T12:21:38;13.70;55.00
4103;DHT22;2065;49.790;9.620;2023-04-15T12:24:07;13.60;55.50
4103;DHT22;2065;49.790;9.620;2023-04-15T12:26:37;13.70;56.30
4103;DHT22;2065;49.790;9.620;2023-04-15T12:29:09;13.90;55.30
4103;DHT22;2065;49.790;9.620;2023-04-15T12:31:46;14.00;54.90
4103;DHT22;2065;49.790;9.620;2023-04-15T12:34:14;14.00;54.40
4103;DHT22;2065;49.790;9.620;2023-04-15T12:36:41;14.20;55.30
4103;DHT22;2065;49.790;9.620;2023-04-15T12:39:08;14.10;55.70
4103;DHT22;2065;49.790;9.620;2023-04-15T12:41:36;14.10;54.80
4103;DHT22;2065;49.790;9.620;2023-04-15T12:44:03;14.00;54.60
4103;DHT22;2065;49.790;9.620;2023-04-15T12:46:31;13.90;55.70
4103;DHT22;2065;49.790;9.620;2023-04-15T12:48:58;14.10;55.60
4103;DHT22;2065;49.790;9.620;2023-04-15T12:51:25;14.00;55.20
4103;DHT22;2065;49.790;9.620;2023-04-15T12:53:53;13.70;56.10
4103;DHT22;2065;49.790;9.620;2023-04-15T12:56:20;13.60;57.30
4103;DHT22;2065;49.790;9.620;2023-04-15T12:58:48;13.60;56.90
4103;DHT22;2065;49.790;9.620;2023-04-15T13:01:16;13.50;57.80
4103;DHT22;2065;49.790;9.620;2023-04-15T13:03:43;13.60;58.40
4103;DHT22;2065;49.790;9.620;2023-04-15T13:06:10;13.60;58.00
4103;DHT22;2065;49.790;9.620;2023-04-15T13:08:37;13.50;58.20
4103;DHT22;2065;49.790;9.620;2023-04-15T13:11:04;13.50;59.10
4103;DHT22;2065;49.790;9.620;2023-04-15T13:13:31;13.60;59.10
4103;DHT22;2065;49.790;9.620;2023-04-15T13:16:00;13.60;59.20
4103;DHT22;2065;49.790;9.620;2023-04-15T13:18:27;13.60;59.60
4103;DHT22;2065;49.790;9.620;2023-04-15T13:20:55;13.70;59.50
4103;DHT22;2065;49.790;9.620;2023-04-15T13:23:23;13.70;60.60
4103;DHT22;2065;49.790;9.620;2023-04-15T13:25:50;13.90;60.60
4103;DHT22;2065;49.790;9.620;2023-04-15T13:28:17;13.70;60.20
4103;DHT22;2065;49.790;9.620;2023-04-15T13:30:44;13.60;60.90
4103;DHT22;2065;49.790;9.620;2023-04-15T13:33:15;13.50;60.50
4103;DHT22;2065;49.790;9.620;2023-04-15T13:35:43;13.30;60.50
4103;DHT22;2065;49.790;9.620;2023-04-15T13:38:10;13.20;60.70
4103;DHT22;2065;49.790;9.620;2023-04-15T13:40:37;13.20;61.60
4103;DHT22;2065;49.790;9.620;2023-04-15T13:43:04;13.20;62.10
4103;DHT22;2065;49.790;9.620;2023-04-15T13:45:31;13.30;62.20
4103;DHT22;2065;49.790;9.620;2023-04-15T13:47:58;13.60;62.20
4103;DHT22;2065;49.790;9.620;2023-04-15T13:50:27;13.70;61.40
4103;DHT22;2065;49.790;9.620;2023-04-15T13:52:54;13.60;60.60
4103;DHT22;2065;49.790;9.620;2023-04-15T13:55:21;13.50;60.40
4103;DHT22;2065;49.790;9.620;2023-04-15T13:57:48;13.40;61.40
4103;DHT22;2065;49.790;9.620;2023-04-15T14:00:16;13.50;61.40
4103;DHT22;2065;49.790;9.620;2023-04-15T14:02:43;13.70;60.90
4103;DHT22;2065;49.790;9.620;2023-04-15T14:05:10;13.60;60.30
4103;DHT22;2065;49.790;9.620;2023-04-15T14:07:39;13.50;61.10
4103;DHT22;2065;49.790;9.620;2023-04-15T14:10:07;13.30;60.60
4103;DHT22;2065;49.790;9.620;2023-04-15T14:12:34;13.50;61.80
4103;DHT22;2065;49.790;9.620;2023-04-15T14:15:01;13.60;61.40
4103;DHT22;2065;49.790;9.620;2023-04-15T14:17:28;13.70;60.90
4103;DHT22;2065;49.790;9.620;2023-04-15T14:19:55;13.90;60.10
4103;DHT22;2065;49.790;9.620;2023-04-15T14:22:22;13.80;60.10
4103;DHT22;2065;49.790;9.620;2023-04-15T14:24:51;13.60;60.50
4103;DHT22;2065;49.790;9.620;2023-04-15T14:27:20;13.70;60.60
4103;DHT22;2065;49.790;9.620;2023-04-15T14:29:47;13.70;60.10
4103;DHT22;2065;49.790;9.620;2023-04-15T14:32:15;13.80;59.80
4103;DHT22;2065;49.790;9.620;2023-04-15T14:34:42;13.70;60.30
4103;DHT22;2065;49.790;9.620;2023-04-15T14:37:09;13.60;60.30
4103;DHT22;2065;49.790;9.620;2023-04-15T14:39:36;13.60;60.20
4103;DHT22;2065;49.790;9.620;2023-04-15T14:42:04;13.50;59.50
4103;DHT22;2065;49.790;9.620;2023-04-15T14:44:31;13.40;60.50
4103;DHT22;2065;49.790;9.620;2023-04-15T14:46:58;13.40;60.40
4103;DHT22;2065;49.790;9.620;2023-04-15T14:49:25;13.40;60.00
4103;DHT22;2065;49.790;9.620;2023-04-15T14:51:52;13.60;60.20
4103;DHT22;2065;49.790;9.620;2023-04-15T14:54:19;13.50;60.40
4103;DHT22;2065;49.790;9.620;2023-04-15T14:56:46;13.40;60.60
4103;DHT22;2065;49.790;9.620;2023-04-15T14:59:14;13.50;60.10
4103;DHT22;2065;49.790;9.620;2023-04-15T15:01:41;13.40;59.30
4103;DHT22;2065;49.790;9.620;2023-04-15T15:04:09;13.40;59.90
4103;DHT22;2065;49.790;9.620;2023-04-15T15:06:36;13.40;59.40
4103;DHT22;2065;49.790;9.620;2023-04-15T15:09:04;13.50;59.80
4103;DHT22;2065;49.790;9.620;2023-04-15T15:11:31;13.50;59.20
4103;DHT22;2065;49.790;9.620;2023-04-15T15:13:57;13.50;60.00
4103;DHT22;2065;49.790;9.620;2023-04-15T15:16:26;13.70;59.60
4103;DHT22;2065;49.790;9.620;2023-04-15T15:18:54;13.70;59.60
4103;DHT22;2065;49.790;9.620;2023-04-15T15:21:21;13.60;60.70
4103;DHT22;2065;49.790;9.620;2023-04-15T15:23:48;13.70;60.90
4103;DHT22;2065;49.790;9.620;2023-04-15T15:26:15;13.50;60.90
4103;DHT22;2065;49.790;9.620;2023-04-15T15:28:43;13.40;61.50
4103;DHT22;2065;49.790;9.620;2023-04-15T15:31:11;13.50;62.20
4103;DHT22;2065;49.790;9.620;2023-04-15T15:33:39;13.60;61.70
4103;DHT22;2065;49.790;9.620;2023-04-15T15:36:08;13.60;61.70
4103;DHT22;2065;49.790;9.620;2023-04-15T15:38:35;13.70;61.30
4103;DHT22;2065;49.790;9.620;2023-04-15T15:41:03;13.80;61.70
4103;DHT22;2065;49.790;9.620;2023-04-15T15:43:30;13.80;61.00
4103;DHT22;2065;49.790;9.620;2023-04-15T15:45:57;13.60;61.30
4103;DHT22;2065;49.790;9.620;2023-04-15T15:48:24;13.70;61.70
4103;DHT22;2065;49.790;9.620;2023-04-15T15:50:53;13.90;62.50
4103;DHT22;2065;49.790;9.620;2023-04-15T15:53:20;14.00;62.50
4103;DHT22;2065;49.790;9.620;2023-04-15T15:55:49;13.80;62.80
4103;DHT22;2065;49.790;9.620;2023-04-15T15:58:16;13.60;62.60
4103;DHT22;2065;49.790;9.620;2023-04-15T16:00:43;13.70;63.40
4103;DHT22;2065;49.790;9.620;2023-04-15T16:03:10;13.70;63.30
4103;DHT22;2065;49.790;9.620;2023-04-15T16:05:37;13.70;62.90
4103;DHT22;2065;49.790;9.620;2023-04-15T16:08:06;13.60;63.20